Rechercher aéroport 
image banner adimage banner ad
image banner ad

SVBM - Barquisimeto / Gral. Jacinto Lara Intl

Situé à Barquisimeto, Venezuela

ICAO - SVBM, IATA - BRM

Données fournies par Airmate  

Information générale

Coordonnées: N10°2'32" W69°21'38"
Élévation : 2044 feet MSL.
 
Évalué:
Voir évaluations: [VIEW]


Voir autres Aéroports à Lara

Données opérationnelles

Accessible au public
Heure actuelle UTC:
Heure actuelle locale:
Météo
METAR: SVBM 071202Z AUTO 10003KT NCD 21/21 Q1015
TAF: TAF SVBM 071224Z 0712/0812 11007KT 9999 BR FEW013 SCT070 TX32/0718Z TN22/0808 BECMG 0714/0718 11010KT 7000 VCTSDZ FEW013CB BKN070
Voir NOTAMs / SUP AIP / TFR affectant cet aéroport [VIEW]
Fréquences de communication: [VIEW]

Pistes:

Identifiant RWYQFULongueur (ft)Largeur (ft)SurfaceLDA (ft)
0981°7808148ASP
27261°7808148

Coordonnées de l'aéroport

Adresse: Barquisimeto Venezuela

Vue satellite de SVBM